Dades meteomassalio
Diari Summary for Febrer 28, 2017 Units:  Metric    English   Both
« Previous Day
Next Day »
Diari Semanal Mensual Anual Personalitzat
  Maxima: Minima: Mijana:
Temperatura: 18.0 °C 8.5 °C 12.6 °C
Rosada: 6.7 °C 3.3 °C 4.9 °C
Humitat: 77 % 43 % 60 %
Velocitat del vent: 62.9 km/h 0.0 km/h 23.2 km/h
Racha vent: 62.9 km/h - -
Vent:- - WNW
Pressio: 1018.2 hPa 1009.0 hPa -
Pluja: 0.0 mm    
Historical Graphs
 
 
Tabular Data for Febrer 28, 2017
Time Temperature Dew Point Pressure Wind Wind Speed Wind Gust Humidity Rainfall Rate (Hourly) solar Conditions
00:02 12.3 °C 4.0 °C 1012.8 hPa WSW 1.9 km/h 1.9 km/h 57 % 0.0 mm 0.0 W/m2 RA
00:07 12.1 °C 4.1 °C 1012.8 hPa WSW 13.0 km/h 13.0 km/h 58 % 0.0 mm 0.0 W/m2 CLR
00:12 12.1 °C 4.1 °C 1012.4 hPa SW 9.3 km/h 9.3 km/h 58 % 0.0 mm 0.0 W/m2 CLR
00:17 12.0 °C 4.0 °C 1012.8 hPa SW 4.8 km/h 4.8 km/h 58 % 0.0 mm 0.0 W/m2 CLR
00:22 11.9 °C 3.9 °C 1012.4 hPa Calm     58 % 0.0 mm 0.0 W/m2 CLR
00:27 11.8 °C 4.0 °C 1012.4 hPa Calm     59 % 0.0 mm 0.0 W/m2 CLR
00:32 11.5 °C 4.0 °C 1012.4 hPa WNW 11.1 km/h 11.1 km/h 60 % 0.0 mm 0.0 W/m2 CLR
00:37 11.8 °C 4.1 °C 1012.4 hPa WSW 20.4 km/h 20.4 km/h 59 % 0.0 mm 0.0 W/m2 CLR
00:42 12.3 °C 4.3 °C 1012.4 hPa WNW 9.3 km/h 9.3 km/h 58 % 0.0 mm 0.0 W/m2 CLR
00:47 12.4 °C 4.1 °C 1012.8 hPa Calm     57 % 0.0 mm 0.0 W/m2 CLR
00:52 12.2 °C 4.2 °C 1012.4 hPa West 5.6 km/h 5.6 km/h 58 % 0.0 mm 0.0 W/m2 CLR
00:57 12.3 °C 4.2 °C 1012.4 hPa WSW 18.5 km/h 18.5 km/h 58 % 0.0 mm 0.0 W/m2 CLR
01:02 12.4 °C 4.1 °C 1012.4 hPa West 11.3 km/h 11.3 km/h 57 % 0.0 mm 0.0 W/m2 CLR
01:07 12.3 °C 4.2 °C 1012.4 hPa West 14.8 km/h 14.8 km/h 58 % 0.0 mm 0.0 W/m2 CLR
01:12 12.3 °C 4.3 °C 1012.4 hPa NW 18.5 km/h 18.5 km/h 58 % 0.0 mm 0.0 W/m2 CLR
01:17 12.4 °C 4.3 °C 1012.4 hPa WNW 22.2 km/h 22.2 km/h 58 % 0.0 mm 0.0 W/m2 CLR
01:22 12.6 °C 4.3 °C 1012.4 hPa West 22.5 km/h 22.5 km/h 57 % 0.0 mm 0.0 W/m2 CLR
01:27 12.6 °C 4.3 °C 1012.4 hPa West 22.2 km/h 22.2 km/h 57 % 0.0 mm 0.0 W/m2 CLR
01:32 12.6 °C 4.3 °C 1012.4 hPa West 14.8 km/h 14.8 km/h 57 % 0.0 mm 0.0 W/m2 CLR
01:37 12.4 °C 4.2 °C 1012.4 hPa West 18.5 km/h 18.5 km/h 57 % 0.0 mm 0.0 W/m2 CLR
01:42 12.5 °C 4.2 °C 1012.4 hPa West 33.3 km/h 33.3 km/h 57 % 0.0 mm 0.0 W/m2 CLR
01:47 12.8 °C 4.2 °C 1012.4 hPa WSW 27.8 km/h 27.8 km/h 56 % 0.0 mm 0.0 W/m2 CLR
01:52 12.8 °C 4.3 °C 1012.4 hPa West 24.1 km/h 24.1 km/h 56 % 0.0 mm 0.0 W/m2 CLR
01:57 12.9 °C 4.1 °C 1012.4 hPa West 33.3 km/h 33.3 km/h 55 % 0.0 mm 0.0 W/m2 CLR
02:02 12.9 °C 4.3 °C 1012.4 hPa West 25.7 km/h 25.7 km/h 56 % 0.0 mm 0.0 W/m2 CLR
02:07 12.8 °C 4.3 °C 1012.4 hPa WSW 24.1 km/h 24.1 km/h 56 % 0.0 mm 0.0 W/m2 CLR
02:12 12.7 °C 4.1 °C 1012.1 hPa West 22.2 km/h 22.2 km/h 56 % 0.0 mm 0.0 W/m2 CLR
02:17 12.6 °C 4.0 °C 1012.1 hPa WSW 18.5 km/h 18.5 km/h 56 % 0.0 mm 0.0 W/m2 CLR
02:22 12.4 °C 4.1 °C 1012.1 hPa WNW 18.5 km/h 18.5 km/h 57 % 0.0 mm 0.0 W/m2 CLR
02:27 12.3 °C 4.1 °C 1012.1 hPa WNW 20.4 km/h 20.4 km/h 57 % 0.0 mm 0.0 W/m2 CLR
02:33 12.3 °C 4.2 °C 1012.1 hPa WNW 18.5 km/h 19.5 km/h 58 % 0.0 mm 0.0 W/m2 CLR
02:37 12.3 °C 4.2 °C 1011.7 hPa West 19.3 km/h 19.3 km/h 58 % 0.0 mm 0.0 W/m2 CLR
02:43 12.2 °C 4.2 °C 1011.7 hPa WNW 22.2 km/h 22.2 km/h 58 % 0.0 mm 0.0 W/m2 CLR
02:48 12.2 °C 4.2 °C 1011.7 hPa West 20.4 km/h 20.4 km/h 58 % 0.0 mm 0.0 W/m2 CLR
02:53 12.1 °C 4.3 °C 1011.7 hPa West 18.5 km/h 18.5 km/h 59 % 0.0 mm 0.0 W/m2 CLR
02:58 12.0 °C 4.2 °C 1011.4 hPa SW 7.4 km/h 7.4 km/h 59 % 0.0 mm 0.0 W/m2 CLR
03:03 11.7 °C 3.9 °C 1011.7 hPa Calm     59 % 0.0 mm 0.0 W/m2 CLR
03:08 11.5 °C 4.0 °C 1011.7 hPa Calm     60 % 0.0 mm 0.0 W/m2 CLR
03:13 11.2 °C 3.9 °C 1011.4 hPa Calm     61 % 0.0 mm 0.0 W/m2 CLR
03:18 11.1 °C 4.1 °C 1011.4 hPa Calm     62 % 0.0 mm 0.0 W/m2 CLR
03:23 10.9 °C 3.9 °C 1011.4 hPa Calm     62 % 0.0 mm 0.0 W/m2 CLR
03:28 10.8 °C 4.1 °C 1011.4 hPa WSW 3.7 km/h 3.7 km/h 63 % 0.0 mm 0.0 W/m2 CLR
03:33 10.8 °C 4.1 °C 1011.4 hPa West 5.6 km/h 5.6 km/h 63 % 0.0 mm 0.0 W/m2 CLR
03:38 10.9 °C 4.1 °C 1011.1 hPa WSW 11.1 km/h 11.1 km/h 63 % 0.0 mm 0.0 W/m2 CLR
03:43 11.3 °C 4.3 °C 1011.4 hPa West 24.1 km/h 24.1 km/h 62 % 0.0 mm 0.0 W/m2 CLR
03:48 11.8 °C 4.3 °C 1011.1 hPa SW 18.5 km/h 18.5 km/h 60 % 0.0 mm 0.0 W/m2 CLR
03:53 11.8 °C 4.3 °C 1011.1 hPa SW 24.1 km/h 24.1 km/h 60 % 0.0 mm 0.0 W/m2 CLR
03:58 11.8 °C 4.3 °C 1011.1 hPa West 31.5 km/h 31.5 km/h 60 % 0.0 mm 0.0 W/m2 CLR
04:03 12.1 °C 4.3 °C 1011.1 hPa West 27.8 km/h 27.8 km/h 59 % 0.0 mm 0.0 W/m2 CLR
04:08 12.2 °C 4.4 °C 1011.1 hPa West 27.8 km/h 27.8 km/h 59 % 0.0 mm 0.0 W/m2 CLR
04:13 12.2 °C 4.4 °C 1011.1 hPa West 18.5 km/h 18.5 km/h 59 % 0.0 mm 0.0 W/m2 CLR
04:18 12.1 °C 4.3 °C 1011.1 hPa West 29.6 km/h 29.6 km/h 59 % 0.0 mm 0.0 W/m2 CLR
04:23 12.1 °C 4.3 °C 1011.1 hPa WNW 25.9 km/h 25.9 km/h 59 % 0.0 mm 0.0 W/m2 CLR
04:28 12.1 °C 4.6 °C 1010.7 hPa WSW 20.4 km/h 20.4 km/h 60 % 0.0 mm 0.0 W/m2 CLR
04:33 12.1 °C 4.5 °C 1011.1 hPa West 18.5 km/h 18.5 km/h 60 % 0.0 mm 0.0 W/m2 CLR
04:38 11.9 °C 4.4 °C 1011.1 hPa West 22.5 km/h 22.5 km/h 60 % 0.0 mm 0.0 W/m2 CLR
04:43 11.9 °C 4.4 °C 1011.1 hPa SW 22.2 km/h 22.2 km/h 60 % 0.0 mm 0.0 W/m2 CLR
04:48 11.7 °C 4.4 °C 1011.1 hPa West 18.5 km/h 18.5 km/h 61 % 0.0 mm 0.0 W/m2 CLR
04:53 11.6 °C 4.3 °C 1011.1 hPa West 18.5 km/h 18.5 km/h 61 % 0.0 mm 0.0 W/m2 CLR
04:58 11.4 °C 4.4 °C 1011.1 hPa West 18.5 km/h 18.5 km/h 62 % 0.0 mm 0.0 W/m2 CLR
05:03 11.4 °C 4.3 °C 1011.1 hPa WSW 14.8 km/h 14.8 km/h 62 % 0.0 mm 0.0 W/m2 CLR
05:08 11.3 °C 4.5 °C 1011.1 hPa WSW 3.7 km/h 3.7 km/h 63 % 0.0 mm 0.0 W/m2 CLR
05:13 11.1 °C 4.3 °C 1011.1 hPa WSW 9.3 km/h 9.3 km/h 63 % 0.0 mm 0.0 W/m2 CLR
05:18 10.8 °C 4.3 °C 1011.1 hPa West 6.4 km/h 6.4 km/h 64 % 0.0 mm 0.0 W/m2 CLR
05:23 10.6 °C 4.3 °C 1011.1 hPa West 5.6 km/h 5.6 km/h 65 % 0.0 mm 0.0 W/m2 CLR
05:28 10.4 °C 4.3 °C 1011.1 hPa WSW 7.4 km/h 7.4 km/h 66 % 0.0 mm 0.0 W/m2 CLR
05:33 10.5 °C 4.4 °C 1011.1 hPa WSW 7.4 km/h 7.4 km/h 66 % 0.0 mm 0.0 W/m2 CLR
05:38 10.5 °C 4.4 °C 1011.1 hPa WSW 5.6 km/h 5.6 km/h 66 % 0.0 mm 0.0 W/m2 CLR
05:43 10.5 °C 4.6 °C 1011.1 hPa West 13.0 km/h 13.0 km/h 67 % 0.0 mm 0.0 W/m2 CLR
05:48 10.9 °C 4.8 °C 1011.1 hPa West 19.3 km/h 19.3 km/h 66 % 0.0 mm 0.0 W/m2 CLR
05:53 11.2 °C 4.9 °C 1011.1 hPa West 18.5 km/h 18.5 km/h 65 % 0.0 mm 0.0 W/m2 CLR
05:58 11.2 °C 4.9 °C 1011.1 hPa WNW 16.7 km/h 16.7 km/h 65 % 0.0 mm 0.0 W/m2 CLR
06:03 11.2 °C 4.9 °C 1011.1 hPa West 5.6 km/h 5.6 km/h 65 % 0.0 mm 0.0 W/m2 CLR
06:08 11.2 °C 4.9 °C 1011.1 hPa West 18.5 km/h 18.5 km/h 65 % 0.0 mm 0.0 W/m2 CLR
06:13 11.2 °C 4.8 °C 1011.1 hPa West 5.6 km/h 5.6 km/h 65 % 0.0 mm 0.0 W/m2 CLR
06:18 11.1 °C 4.7 °C 1011.1 hPa WNW 4.8 km/h 4.8 km/h 65 % 0.0 mm 0.0 W/m2 CLR
06:23 10.9 °C 4.8 °C 1011.1 hPa WNW 6.4 km/h 6.4 km/h 66 % 0.0 mm 0.0 W/m2 CLR
06:28 10.9 °C 4.8 °C 1011.1 hPa West 13.0 km/h 13.0 km/h 66 % 0.0 mm 0.0 W/m2 CLR
06:33 11.1 °C 5.0 °C 1011.1 hPa WNW 9.3 km/h 9.3 km/h 66 % 0.0 mm 0.0 W/m2 CLR
06:38 11.1 °C 4.9 °C 1011.1 hPa WNW 7.4 km/h 7.4 km/h 66 % 0.0 mm 0.0 W/m2 CLR
06:43 10.9 °C 4.8 °C 1011.1 hPa WNW 7.4 km/h 7.4 km/h 66 % 0.0 mm 0.0 W/m2 CLR
06:48 10.8 °C 4.7 °C 1011.1 hPa West 8.0 km/h 8.0 km/h 66 % 0.0 mm 0.0 W/m2 CLR
06:53 10.9 °C 4.8 °C 1011.4 hPa WNW 7.4 km/h 7.4 km/h 66 % 0.0 mm 0.0 W/m2 CLR
06:58 10.9 °C 4.8 °C 1011.1 hPa West 8.0 km/h 8.0 km/h 66 % 0.0 mm 0.0 W/m2 CLR
07:03 11.0 °C 4.9 °C 1011.1 hPa West 8.0 km/h 8.0 km/h 66 % 0.0 mm 0.0 W/m2 CLR
07:08 11.0 °C 4.9 °C 1011.1 hPa West 8.0 km/h 8.0 km/h 66 % 0.0 mm 0.0 W/m2 CLR
07:13 11.0 °C 4.9 °C 1011.1 hPa West 6.4 km/h 6.4 km/h 66 % 0.0 mm 0.0 W/m2 CLR
07:18 10.9 °C 4.8 °C 1011.1 hPa West 5.6 km/h   66 % 0.0 mm 0.0 W/m2 CLR
07:23 10.8 °C 4.9 °C 1011.1 hPa Calm     67 % 0.0 mm 0.0 W/m2 CLR
07:28 10.5 °C 4.6 °C 1011.4 hPa Calm     67 % 0.0 mm 0.0 W/m2 OVC
07:33 10.2 °C 4.6 °C 1011.4 hPa Calm     68 % 0.0 mm 0.0 W/m2 OVC
07:38 9.8 °C 4.6 °C 1011.1 hPa Calm     70 % 0.0 mm 5.0 W/m2 OVC
07:43 9.4 °C 4.4 °C 1011.1 hPa Calm     71 % 0.0 mm 7.0 W/m2 BKN
07:48 9.2 °C 4.4 °C 1011.1 hPa Calm     72 % 0.0 mm 11.0 W/m2 BKN
07:53 9.2 °C 4.6 °C 1011.1 hPa Calm     73 % 0.0 mm 19.0 W/m2 BKN
07:58 9.1 °C 4.5 °C 1011.4 hPa WSW 3.7 km/h   73 % 0.0 mm 28.0 W/m2 BKN
08:04 9.2 °C 4.8 °C 1011.4 hPa Calm     74 % 0.0 mm 35.0 W/m2 BKN
08:09 9.2 °C 4.8 °C 1011.4 hPa Calm     74 % 0.0 mm 39.0 W/m2 BKN
08:14 9.1 °C 4.7 °C 1011.4 hPa Calm     74 % 0.0 mm 40.0 W/m2 BKN
08:19 8.8 °C 4.7 °C 1011.4 hPa WSW 5.6 km/h 5.6 km/h 75 % 0.0 mm 44.0 W/m2 BKN
08:24 8.9 °C 4.9 °C 1011.4 hPa WSW 5.6 km/h   76 % 0.0 mm 47.0 W/m2 SCT
08:29 9.2 °C 4.9 °C 1011.7 hPa Calm     75 % 0.0 mm 54.0 W/m2 SCT
08:34 9.3 °C 5.1 °C 1011.7 hPa Calm     75 % 0.0 mm 63.0 W/m2 SCT
08:39 9.6 °C 5.2 °C 1011.7 hPa Calm     74 % 0.0 mm 69.0 W/m2 SCT
08:44 9.8 °C 5.2 °C 1011.7 hPa Calm     73 % 0.0 mm 72.0 W/m2 FEW
08:49 9.8 °C 5.2 °C 1011.7 hPa Calm     73 % 0.0 mm 79.0 W/m2 FEW
08:54 9.7 °C 5.3 °C 1011.7 hPa Calm     74 % 0.0 mm 84.0 W/m2 FEW
08:59 9.6 °C 5.3 °C 1012.1 hPa Calm     75 % 0.0 mm 91.0 W/m2 FEW
09:04 9.4 °C 5.2 °C 1011.7 hPa Calm     75 % 0.0 mm 102.0 W/m2 CLR
09:09 9.3 °C 5.3 °C 1012.1 hPa Calm     76 % 0.0 mm 121.0 W/m2 CLR
09:14 9.6 °C 5.6 °C 1012.1 hPa Calm     76 % 0.0 mm 130.0 W/m2 CLR
09:19 9.7 °C 5.6 °C 1012.1 hPa Calm     76 % 0.0 mm 135.0 W/m2 CLR
09:24 9.6 °C 5.6 °C 1012.1 hPa Calm     76 % 0.0 mm 135.0 W/m2 CLR
09:29 9.8 °C 5.9 °C 1012.1 hPa WNW 6.4 km/h 6.4 km/h 77 % 0.0 mm 144.0 W/m2 CLR
09:34 10.4 °C 5.9 °C 1012.1 hPa West 5.6 km/h 5.6 km/h 74 % 0.0 mm 141.0 W/m2 CLR
09:39 11.1 °C 6.1 °C 1012.1 hPa WNW 9.7 km/h 9.7 km/h 71 % 0.0 mm 123.0 W/m2 CLR
09:44 11.9 °C 5.9 °C 1012.1 hPa West 13.0 km/h 13.0 km/h 67 % 0.0 mm 114.0 W/m2 CLR
09:49 12.2 °C 5.8 °C 1012.1 hPa West 13.0 km/h 13.0 km/h 65 % 0.0 mm 121.0 W/m2 CLR
09:54 12.4 °C 5.8 °C 1012.1 hPa West 14.8 km/h 14.8 km/h 64 % 0.0 mm 176.0 W/m2 CLR
09:59 12.5 °C 5.9 °C 1012.1 hPa West 11.1 km/h 11.1 km/h 64 % 0.0 mm 190.0 W/m2 CLR
10:04 12.6 °C 5.7 °C 1012.1 hPa West 7.4 km/h 7.4 km/h 63 % 0.0 mm 179.0 W/m2 CLR
10:09 12.7 °C 6.1 °C 1012.1 hPa West 9.3 km/h 9.3 km/h 64 % 0.0 mm 167.0 W/m2 CLR
10:14 12.7 °C 6.1 °C 1011.7 hPa Calm     64 % 0.0 mm 179.0 W/m2 CLR
10:19 12.8 °C 6.4 °C 1011.7 hPa Calm     65 % 0.0 mm 183.0 W/m2 CLR
10:24 12.9 °C 6.2 °C 1011.7 hPa Calm     64 % 0.0 mm 167.0 W/m2 CLR
10:29 12.9 °C 6.5 °C 1011.7 hPa Calm     65 % 0.0 mm 153.0 W/m2 CLR
10:34 13.1 °C 6.2 °C 1011.7 hPa WNW 11.1 km/h 11.1 km/h 63 % 0.0 mm 151.0 W/m2 CLR
10:39 13.2 °C 6.1 °C 1011.7 hPa NW 7.4 km/h 7.4 km/h 62 % 0.0 mm 174.0 W/m2 CLR
10:44 13.2 °C 6.3 °C 1011.7 hPa NNW 5.6 km/h 5.6 km/h 63 % 0.0 mm 232.0 W/m2 CLR
10:49 13.4 °C 6.5 °C 1011.7 hPa Calm     63 % 0.0 mm 315.0 W/m2 CLR
10:54 13.6 °C 6.4 °C 1011.7 hPa NW 5.6 km/h 5.6 km/h 62 % 0.0 mm 341.0 W/m2 CLR
10:59 13.9 °C 6.5 °C 1011.7 hPa Calm     61 % 0.0 mm 369.0 W/m2 CLR
11:04 14.2 °C 6.6 °C 1011.7 hPa WNW 18.5 km/h 18.5 km/h 60 % 0.0 mm 563.0 W/m2 CLR
11:09 14.6 °C 6.6 °C 1011.4 hPa NNW 13.0 km/h 13.0 km/h 59 % 0.0 mm 534.0 W/m2 CLR
11:14 14.7 °C 6.5 °C 1011.4 hPa NNW 12.9 km/h 12.9 km/h 58 % 0.0 mm 438.0 W/m2 CLR
11:19 14.8 °C 6.3 °C 1011.4 hPa NNW 18.5 km/h 18.5 km/h 57 % 0.0 mm 348.0 W/m2 CLR
11:24 15.1 °C 6.6 °C 1011.4 hPa NW 29.6 km/h 29.6 km/h 57 % 0.0 mm 712.0 W/m2 CLR
11:29 15.1 °C 6.7 °C 1011.4 hPa NW 25.9 km/h 25.9 km/h 57 % 0.0 mm 749.0 W/m2 CLR
11:34 15.2 °C 6.4 °C 1011.4 hPa NW 27.8 km/h 27.8 km/h 56 % 0.0 mm 777.0 W/m2 CLR
11:39 15.3 °C 6.6 °C 1011.4 hPa West 18.5 km/h 18.5 km/h 56 % 0.0 mm 738.0 W/m2 CLR
11:44 15.7 °C 6.4 °C 1011.4 hPa NNW 24.1 km/h 24.1 km/h 54 % 0.0 mm 603.0 W/m2 CLR
11:49 15.6 °C 6.6 °C 1011.4 hPa West 20.4 km/h 20.4 km/h 55 % 0.0 mm 584.0 W/m2 CLR
11:54 15.7 °C 5.6 °C 1011.4 hPa West 20.4 km/h 20.4 km/h 51 % 0.0 mm 645.0 W/m2 CLR
11:59 15.7 °C 6.1 °C 1011.4 hPa WNW 18.5 km/h 18.5 km/h 53 % 0.0 mm 338.0 W/m2 CLR
12:04 15.7 °C 5.3 °C 1011.4 hPa WNW 33.3 km/h 33.3 km/h 50 % 0.0 mm 345.0 W/m2 CLR
12:09 15.6 °C 5.2 °C 1011.4 hPa NNW 31.5 km/h 31.5 km/h 50 % 0.0 mm 334.0 W/m2 CLR
12:14 15.6 °C 5.4 °C 1011.4 hPa WNW 29.0 km/h 29.0 km/h 51 % 0.0 mm 338.0 W/m2 CLR
12:19 15.4 °C 5.3 °C 1011.4 hPa NW 31.5 km/h 31.5 km/h 51 % 0.0 mm 350.0 W/m2 CLR
12:24 15.7 °C 5.8 °C 1011.1 hPa WNW 18.5 km/h 18.5 km/h 52 % 0.0 mm 364.0 W/m2 CLR
12:29 15.8 °C 5.7 °C 1011.4 hPa West 33.3 km/h 33.3 km/h 51 % 0.0 mm 459.0 W/m2 CLR
12:34 15.9 °C 5.4 °C 1011.1 hPa WNW 33.3 km/h 33.3 km/h 50 % 0.0 mm 504.0 W/m2 CLR
12:39 15.9 °C 5.4 °C 1011.1 hPa West 35.2 km/h 35.2 km/h 50 % 0.0 mm 415.0 W/m2 CLR
12:44 15.9 °C 5.8 °C 1010.7 hPa West 38.9 km/h 38.9 km/h 51 % 0.0 mm 434.0 W/m2 CLR
12:49 15.9 °C 5.2 °C 1010.7 hPa West 40.7 km/h 40.7 km/h 49 % 0.0 mm 424.0 W/m2 CLR
12:54 15.7 °C 5.6 °C 1010.7 hPa NW 37.0 km/h 37.0 km/h 51 % 0.0 mm 306.0 W/m2 CLR
12:59 16.0 °C 5.3 °C 1010.7 hPa West 31.5 km/h 31.5 km/h 49 % 0.0 mm 571.0 W/m2 CLR
13:04 16.3 °C 5.6 °C 1010.4 hPa NW 31.5 km/h 31.5 km/h 49 % 0.0 mm 650.0 W/m2 CLR
13:09 16.8 °C 6.6 °C 1010.4 hPa West 27.8 km/h 27.8 km/h 51 % 0.0 mm 605.0 W/m2 CLR
13:14 17.0 °C 6.2 °C 1010.4 hPa WNW 33.8 km/h 33.8 km/h 49 % 0.0 mm 649.0 W/m2 CLR
13:19 16.8 °C 5.1 °C 1010.4 hPa West 35.2 km/h 35.2 km/h 46 % 0.0 mm 647.0 W/m2 CLR
13:24 16.4 °C 5.4 °C 1010.4 hPa WNW 38.6 km/h 38.6 km/h 48 % 0.0 mm 445.0 W/m2 CLR
13:29 16.1 °C 5.1 °C 1010.0 hPa NW 38.6 km/h 38.6 km/h 48 % 0.0 mm 397.0 W/m2 CLR
13:35 16.2 °C 5.4 °C 1010.0 hPa WNW 37.0 km/h 37.0 km/h 49 % 0.0 mm 373.0 W/m2 CLR
13:40 16.3 °C 5.3 °C 1010.0 hPa West 29.6 km/h 29.6 km/h 48 % 0.0 mm 497.0 W/m2 CLR
13:45 16.5 °C 5.4 °C 1010.0 hPa WNW 40.7 km/h 40.7 km/h 48 % 0.0 mm 652.0 W/m2 CLR
13:50 16.6 °C 5.2 °C 1010.0 hPa WNW 40.7 km/h 40.7 km/h 47 % 0.0 mm 540.0 W/m2 CLR
13:55 16.7 °C 5.3 °C 1009.7 hPa West 48.1 km/h 48.1 km/h 47 % 0.0 mm 464.0 W/m2 CLR
14:00 16.8 °C 5.7 °C 1009.7 hPa West 33.3 km/h 33.3 km/h 48 % 0.0 mm 357.0 W/m2 CLR
14:05 16.8 °C 5.4 °C 1009.7 hPa WSW 40.2 km/h 40.2 km/h 47 % 0.0 mm 439.0 W/m2 CLR
14:10 16.8 °C 5.1 °C 1009.7 hPa NW 46.3 km/h 46.3 km/h 46 % 0.0 mm 613.0 W/m2 CLR
14:15 17.1 °C 5.7 °C 1009.7 hPa WNW 51.8 km/h 51.8 km/h 47 % 0.0 mm 650.0 W/m2 CLR
14:20 17.4 °C 5.7 °C 1009.7 hPa WNW 51.8 km/h 51.8 km/h 46 % 0.0 mm 598.0 W/m2 CLR
14:25 17.3 °C 5.3 °C 1009.7 hPa NNW 51.8 km/h 51.8 km/h 45 % 0.0 mm 499.0 W/m2 CLR
14:30 17.1 °C 5.3 °C 1009.7 hPa WNW 53.7 km/h 53.7 km/h 46 % 0.0 mm 406.0 W/m2 CLR
14:35 17.3 °C 5.8 °C 1009.4 hPa NW 42.6 km/h 42.6 km/h 47 % 0.0 mm 719.0 W/m2 CLR
14:40 17.4 °C 5.4 °C 1009.4 hPa West 55.5 km/h 55.5 km/h 45 % 0.0 mm 570.0 W/m2 CLR
14:45 17.6 °C 6.1 °C 1009.0 hPa West 35.2 km/h 35.2 km/h 47 % 0.0 mm 587.0 W/m2 CLR
14:50 17.6 °C 5.5 °C 1009.0 hPa WNW 44.4 km/h 44.4 km/h 45 % 0.0 mm 596.0 W/m2 CLR
14:55 18.0 °C 5.9 °C 1009.4 hPa West 42.6 km/h 42.6 km/h 45 % 0.0 mm 557.0 W/m2 CLR
15:00 17.7 °C 5.0 °C 1009.0 hPa WNW 42.6 km/h 42.6 km/h 43 % 0.0 mm 441.0 W/m2 CLR
15:05 17.4 °C 5.1 °C 1009.0 hPa West 37.0 km/h 37.0 km/h 44 % 0.0 mm 413.0 W/m2 CLR
15:10 17.4 °C 5.4 °C 1009.0 hPa WNW 48.1 km/h 48.1 km/h 45 % 0.0 mm 508.0 W/m2 CLR
15:15 17.7 °C 5.6 °C 1009.0 hPa WNW 46.3 km/h 46.3 km/h 45 % 0.0 mm 555.0 W/m2 CLR
15:20 17.6 °C 5.5 °C 1009.0 hPa NW 43.4 km/h 43.4 km/h 45 % 0.0 mm 519.0 W/m2 CLR
15:25 17.7 °C 5.6 °C 1009.0 hPa WNW 35.2 km/h 35.2 km/h 45 % 0.0 mm 548.0 W/m2 CLR
15:30 18.0 °C 5.9 °C 1009.0 hPa NW 29.6 km/h 29.6 km/h 45 % 0.0 mm 612.0 W/m2 CLR
15:35 17.8 °C 5.4 °C 1009.0 hPa West 48.1 km/h 48.1 km/h 44 % 0.0 mm 146.0 W/m2 CLR
15:40 17.9 °C 5.5 °C 1009.0 hPa West 31.5 km/h 31.5 km/h 44 % 0.0 mm 524.0 W/m2 CLR
15:45 17.7 °C 5.6 °C 1009.0 hPa West 37.0 km/h 37.0 km/h 45 % 0.0 mm 531.0 W/m2 CLR
15:50 17.6 °C 5.8 °C 1009.0 hPa WNW 41.8 km/h 41.8 km/h 46 % 0.0 mm 163.0 W/m2 CLR
15:55 17.3 °C 5.2 °C 1009.0 hPa WNW 33.3 km/h 33.3 km/h 45 % 0.0 mm 132.0 W/m2 CLR
16:00 17.2 °C 5.5 °C 1009.0 hPa NW 33.3 km/h 33.3 km/h 46 % 0.0 mm 167.0 W/m2 CLR
16:05 17.3 °C 5.6 °C 1009.4 hPa WNW 33.3 km/h 33.3 km/h 46 % 0.0 mm 153.0 W/m2 CLR
16:10 17.3 °C 5.2 °C 1009.0 hPa West 38.9 km/h 38.9 km/h 45 % 0.0 mm 172.0 W/m2 CLR
16:15 17.3 °C 5.2 °C 1009.4 hPa NW 37.0 km/h 37.0 km/h 45 % 0.0 mm 134.0 W/m2 CLR
16:20 17.2 °C 5.5 °C 1009.4 hPa NW 24.1 km/h 24.1 km/h 46 % 0.0 mm 134.0 W/m2 CLR
16:25 17.2 °C 5.5 °C 1009.4 hPa NW 25.7 km/h 25.7 km/h 46 % 0.0 mm 134.0 W/m2 CLR
16:30 17.2 °C 5.5 °C 1009.4 hPa NNW 31.5 km/h 31.5 km/h 46 % 0.0 mm 144.0 W/m2 CLR
16:35 17.4 °C 5.7 °C 1009.4 hPa WNW 31.5 km/h 31.5 km/h 46 % 0.0 mm 120.0 W/m2 CLR
16:40 17.3 °C 5.3 °C 1009.4 hPa NW 29.6 km/h 29.6 km/h 45 % 0.0 mm 123.0 W/m2 CLR
16:45 17.2 °C 5.4 °C 1009.4 hPa NW 33.3 km/h 33.3 km/h 46 % 0.0 mm 79.0 W/m2 CLR
16:50 17.1 °C 5.3 °C 1009.4 hPa NW 31.5 km/h 31.5 km/h 46 % 0.0 mm 97.0 W/m2 CLR
16:55 17.0 °C 5.3 °C 1009.4 hPa WNW 43.4 km/h 43.4 km/h 46 % 0.0 mm 91.0 W/m2 CLR
17:00 17.0 °C 5.6 °C 1009.4 hPa NW 35.2 km/h 35.2 km/h 47 % 0.0 mm 86.0 W/m2 CLR
17:05 17.0 °C 5.6 °C 1009.7 hPa NNW 35.4 km/h 35.4 km/h 47 % 0.0 mm 102.0 W/m2 CLR
17:10 17.0 °C 5.6 °C 1009.7 hPa NNW 40.7 km/h 40.7 km/h 47 % 0.0 mm 107.0 W/m2 CLR
17:15 16.9 °C 5.6 °C 1009.7 hPa NNW 31.5 km/h 31.5 km/h 47 % 0.0 mm 72.0 W/m2 CLR
17:20 16.9 °C 5.8 °C 1010.0 hPa NW 35.2 km/h 35.2 km/h 48 % 0.0 mm 93.0 W/m2 FEW
17:25 16.8 °C 5.4 °C 1010.0 hPa NNW 54.7 km/h 54.7 km/h 47 % 0.0 mm 79.0 W/m2 FEW
17:30 16.7 °C 5.1 °C 1010.4 hPa NW 44.4 km/h 44.4 km/h 46 % 0.0 mm 53.0 W/m2 FEW
17:35 16.6 °C 4.9 °C 1010.0 hPa WNW 40.7 km/h 40.7 km/h 46 % 0.0 mm 63.0 W/m2 FEW
17:40 16.6 °C 4.9 °C 1010.4 hPa NW 37.0 km/h 37.0 km/h 46 % 0.0 mm 60.0 W/m2 SCT
17:45 16.6 °C 4.9 °C 1010.4 hPa NW 51.5 km/h 51.5 km/h 46 % 0.0 mm 72.0 W/m2 SCT
17:50 16.6 °C 4.9 °C 1010.4 hPa NW 38.9 km/h 38.9 km/h 46 % 0.0 mm 60.0 W/m2 SCT
17:55 16.6 °C 4.9 °C 1010.4 hPa NNW 42.6 km/h 42.6 km/h 46 % 0.0 mm 30.0 W/m2 BKN
18:00 16.5 °C 4.8 °C 1010.7 hPa NW 42.6 km/h 42.6 km/h 46 % 0.0 mm 18.0 W/m2 BKN
18:05 16.4 °C 5.1 °C 1010.7 hPa NW 29.6 km/h 29.6 km/h 47 % 0.0 mm 14.0 W/m2 BKN
18:10 16.5 °C 4.8 °C 1010.7 hPa NW 37.0 km/h 37.0 km/h 46 % 0.0 mm 16.0 W/m2 BKN
18:15 16.4 °C 5.1 °C 1011.4 hPa NW 62.9 km/h 62.9 km/h 47 % 0.0 mm 12.0 W/m2 BKN
18:20 15.5 °C 5.4 °C 1011.4 hPa NNW 55.5 km/h 55.5 km/h 51 % 0.0 mm 11.0 W/m2 BKN
18:25 15.0 °C 5.5 °C 1011.7 hPa North 50.0 km/h 50.0 km/h 53 % 0.0 mm 7.0 W/m2 BKN
18:30 14.7 °C 5.8 °C 1012.1 hPa NNW 50.0 km/h 50.0 km/h 55 % 0.0 mm 9.0 W/m2 BKN
18:35 14.1 °C 5.7 °C 1012.1 hPa NW 53.7 km/h 53.7 km/h 57 % 0.0 mm 7.0 W/m2 BKN
18:40 13.5 °C 5.9 °C 1012.4 hPa NNW 53.7 km/h 53.7 km/h 60 % 0.0 mm 5.0 W/m2
18:45 13.1 °C 5.9 °C 1012.8 hPa NNW 40.7 km/h 40.7 km/h 62 % 0.0 mm 0.0 W/m2 OVC
18:50 12.7 °C 5.8 °C 1013.1 hPa NW 44.4 km/h 44.4 km/h 63 % 0.0 mm 0.0 W/m2 OVC
18:55 12.4 °C 5.6 °C 1013.4 hPa NNW 48.1 km/h 48.1 km/h 63 % 0.0 mm 0.0 W/m2 OVC
19:00 12.2 °C 5.6 °C 1013.8 hPa NW 33.3 km/h 33.3 km/h 64 % 0.0 mm 0.0 W/m2 CLR
19:05 12.0 °C 5.2 °C 1013.8 hPa NNW 46.3 km/h 46.3 km/h 63 % 0.0 mm 0.0 W/m2 CLR
19:10 11.8 °C 4.7 °C 1013.8 hPa NW 37.0 km/h 37.0 km/h 62 % 0.0 mm 0.0 W/m2 CLR
19:16 11.5 °C 4.2 °C 1014.1 hPa NNW 31.5 km/h 31.5 km/h 61 % 0.0 mm 0.0 W/m2 CLR
19:21 11.2 °C 3.9 °C 1014.4 hPa NNW 37.0 km/h 37.0 km/h 61 % 0.0 mm 0.0 W/m2 CLR
19:26 10.9 °C 3.7 °C 1014.8 hPa NNW 33.3 km/h 33.3 km/h 61 % 0.0 mm 0.0 W/m2 CLR
19:31 10.8 °C 3.8 °C 1014.8 hPa NNW 31.5 km/h 31.5 km/h 62 % 0.0 mm 0.0 W/m2 CLR
19:36 10.6 °C 3.8 °C 1015.1 hPa WNW 33.3 km/h 33.3 km/h 63 % 0.0 mm 0.0 W/m2 CLR
19:41 10.4 °C 3.4 °C 1015.1 hPa NW 33.3 km/h 33.3 km/h 62 % 0.0 mm 0.0 W/m2 CLR
19:46 10.3 °C 3.4 °C 1015.5 hPa NNW 44.4 km/h 44.4 km/h 62 % 0.0 mm 0.0 W/m2 CLR
19:51 10.2 °C 3.5 °C 1015.5 hPa NNW 38.9 km/h 38.9 km/h 63 % 0.0 mm 0.0 W/m2 CLR
19:56 10.2 °C 3.5 °C 1015.5 hPa WNW 42.6 km/h 42.6 km/h 63 % 0.0 mm 0.0 W/m2 CLR
20:01 10.2 °C 3.5 °C 1015.5 hPa NW 42.6 km/h 42.6 km/h 63 % 0.0 mm 0.0 W/m2 CLR
20:06 10.1 °C 3.4 °C 1015.5 hPa NW 38.9 km/h 38.9 km/h 63 % 0.0 mm 0.0 W/m2 CLR
20:11 10.0 °C 3.3 °C 1015.5 hPa NW 31.5 km/h 31.5 km/h 63 % 0.0 mm 0.0 W/m2 CLR
20:16 9.9 °C 3.4 °C 1015.8 hPa NNW 35.4 km/h 35.4 km/h 64 % 0.0 mm 0.0 W/m2 CLR
20:21 9.8 °C 3.3 °C 1015.8 hPa NNW 46.3 km/h 46.3 km/h 64 % 0.0 mm 0.0 W/m2 CLR
20:26 9.8 °C 3.5 °C 1016.1 hPa NW 44.4 km/h 44.4 km/h 65 % 0.0 mm 0.0 W/m2 CLR
20:31 9.7 °C 3.6 °C 1016.1 hPa NW 33.3 km/h 33.3 km/h 66 % 0.0 mm 0.0 W/m2 CLR
20:36 9.6 °C 3.8 °C 1015.8 hPa WNW 38.9 km/h 38.9 km/h 67 % 0.0 mm 0.0 W/m2 CLR
20:41 9.6 °C 3.7 °C 1016.1 hPa NW 44.4 km/h 44.4 km/h 67 % 0.0 mm 0.0 W/m2 CLR
20:46 9.4 °C 3.8 °C 1015.8 hPa WNW 37.0 km/h 37.0 km/h 68 % 0.0 mm 0.0 W/m2 CLR
20:51 9.3 °C 3.9 °C 1016.1 hPa WNW 35.2 km/h 35.2 km/h 69 % 0.0 mm 0.0 W/m2 CLR
20:56 9.2 °C 4.0 °C 1016.1 hPa WNW 35.2 km/h 35.2 km/h 70 % 0.0 mm 0.0 W/m2 CLR
21:01 9.1 °C 4.1 °C 1016.1 hPa WNW 25.9 km/h 25.9 km/h 71 % 0.0 mm 0.0 W/m2 CLR
21:06 9.0 °C 4.0 °C 1016.5 hPa NW 29.6 km/h 29.6 km/h 71 % 0.0 mm 0.0 W/m2 CLR
21:11 9.1 °C 4.1 °C 1016.8 hPa NW 31.5 km/h 31.5 km/h 71 % 0.0 mm 0.0 W/m2 CLR
21:16 9.1 °C 4.1 °C 1016.5 hPa NW 37.0 km/h 37.0 km/h 71 % 0.0 mm 0.0 W/m2 CLR
21:21 9.1 °C 4.1 °C 1016.8 hPa NW 25.9 km/h 25.9 km/h 71 % 0.0 mm 0.0 W/m2 CLR
21:26 9.1 °C 4.1 °C 1016.8 hPa WNW 27.8 km/h 27.8 km/h 71 % 0.0 mm 0.0 W/m2 CLR
21:31 9.1 °C 4.3 °C 1016.8 hPa WNW 29.6 km/h 29.6 km/h 72 % 0.0 mm 0.0 W/m2 CLR
21:36 9.1 °C 4.4 °C 1016.8 hPa WNW 22.5 km/h 22.5 km/h 73 % 0.0 mm 0.0 W/m2 CLR
21:41 9.0 °C 4.4 °C 1016.8 hPa NW 24.1 km/h 24.1 km/h 73 % 0.0 mm 0.0 W/m2 CLR
21:46 9.0 °C 4.4 °C 1016.8 hPa NNW 18.5 km/h 18.5 km/h 73 % 0.0 mm 0.0 W/m2 CLR
21:51 8.9 °C 4.4 °C 1016.8 hPa WNW 29.6 km/h 29.6 km/h 73 % 0.0 mm 0.0 W/m2 CLR
21:56 8.8 °C 4.3 °C 1016.8 hPa WNW 16.7 km/h 16.7 km/h 73 % 0.0 mm 0.0 W/m2 CLR
22:01 8.7 °C 4.3 °C 1017.2 hPa WNW 24.1 km/h 24.1 km/h 74 % 0.0 mm 0.0 W/m2 CLR
22:06 8.7 °C 4.3 °C 1017.2 hPa WNW 31.5 km/h 31.5 km/h 74 % 0.0 mm 0.0 W/m2 CLR
22:11 8.7 °C 4.3 °C 1017.2 hPa NW 29.6 km/h 29.6 km/h 74 % 0.0 mm 0.0 W/m2 CLR
22:16 8.7 °C 4.6 °C 1017.2 hPa WNW 20.4 km/h 20.4 km/h 75 % 0.0 mm 0.0 W/m2 CLR
22:21 8.7 °C 4.7 °C 1017.2 hPa WNW 22.2 km/h 22.2 km/h 76 % 0.0 mm 0.0 W/m2 CLR
22:26 8.6 °C 4.8 °C 1017.2 hPa WNW 20.4 km/h 20.4 km/h 77 % 0.0 mm 0.0 W/m2 CLR
22:31 8.6 °C 4.8 °C 1017.2 hPa WNW 20.9 km/h 20.9 km/h 77 % 0.0 mm 0.0 W/m2 CLR
22:36 8.5 °C 4.7 °C 1017.5 hPa West 18.5 km/h 18.5 km/h 77 % 0.0 mm 0.0 W/m2 CLR
22:41 8.5 °C 4.7 °C 1017.5 hPa West 18.5 km/h 18.5 km/h 77 % 0.0 mm 0.0 W/m2 CLR
22:46 8.5 °C 4.7 °C 1017.5 hPa WNW 18.5 km/h 18.5 km/h 77 % 0.0 mm 0.0 W/m2 CLR
22:51 8.5 °C 4.7 °C 1017.5 hPa West 22.2 km/h 22.2 km/h 77 % 0.0 mm 0.0 W/m2 CLR
22:56 8.6 °C 4.6 °C 1017.5 hPa WNW 16.7 km/h 16.7 km/h 76 % 0.0 mm 0.0 W/m2 CLR
23:01 8.6 °C 4.6 °C 1017.5 hPa West 20.4 km/h 20.4 km/h 76 % 0.0 mm 0.0 W/m2 CLR
23:06 8.6 °C 4.4 °C 1017.5 hPa WNW 25.9 km/h 25.9 km/h 75 % 0.0 mm 0.0 W/m2 CLR
23:11 8.6 °C 4.2 °C 1017.5 hPa West 24.1 km/h 24.1 km/h 74 % 0.0 mm 0.0 W/m2 CLR
23:16 8.7 °C 4.3 °C 1017.8 hPa WNW 27.8 km/h 27.8 km/h 74 % 0.0 mm 0.0 W/m2 CLR
23:21 8.6 °C 4.2 °C 1017.8 hPa WNW 32.2 km/h 32.2 km/h 74 % 0.0 mm 0.0 W/m2 CLR
23:26 8.6 °C 4.2 °C 1017.8 hPa West 24.1 km/h 24.1 km/h 74 % 0.0 mm 0.0 W/m2 CLR
23:31 8.6 °C 4.2 °C 1017.8 hPa NW 31.5 km/h 31.5 km/h 74 % 0.0 mm 0.0 W/m2 CLR
23:36 8.6 °C 4.2 °C 1017.8 hPa WNW 22.2 km/h 22.2 km/h 74 % 0.0 mm 0.0 W/m2 CLR
23:41 8.6 °C 4.2 °C 1018.2 hPa WNW 25.7 km/h 25.7 km/h 74 % 0.0 mm 0.0 W/m2 CLR
23:46 8.6 °C 4.2 °C 1018.2 hPa WNW 18.5 km/h 18.5 km/h 74 % 0.0 mm 0.0 W/m2 CLR
23:51 8.7 °C 4.3 °C 1018.2 hPa NW 22.5 km/h 22.5 km/h 74 % 0.0 mm 0.0 W/m2 CLR
23:56 8.7 °C 4.3 °C 1018.2 hPa West 20.4 km/h 20.4 km/h 74 % 0.0 mm 0.0 W/m2 CLR
Lo Temps de Massalio
Compliments of Weather Underground - 1.25 mb